createdAt,value
2019-01-20T00:00:45.571Z,-3.07
2019-01-20T00:01:45.548Z,-3.07
2019-01-20T00:02:45.526Z,-3.06
2019-01-20T00:03:45.502Z,-3.10
2019-01-20T00:04:45.485Z,-3.12
2019-01-20T00:05:45.459Z,-3.09
2019-01-20T00:06:45.439Z,-3.14
2019-01-20T00:07:45.415Z,-3.21
2019-01-20T00:08:45.393Z,-3.18
2019-01-20T00:09:45.376Z,-3.12
2019-01-20T00:10:45.355Z,-3.21
2019-01-20T00:11:45.336Z,-3.14
2019-01-20T00:12:45.329Z,-3.23
2019-01-20T00:13:45.293Z,-3.23
2019-01-20T00:14:45.267Z,-3.25
2019-01-20T00:15:45.250Z,-3.31
2019-01-20T00:16:45.227Z,-3.41
2019-01-20T00:17:45.206Z,-3.35
2019-01-20T00:18:45.185Z,-3.35
2019-01-20T00:19:45.162Z,-3.45
2019-01-20T00:20:45.143Z,-3.45
2019-01-20T00:21:45.116Z,-3.52
2019-01-20T00:22:45.098Z,-3.53
2019-01-20T00:23:45.071Z,-3.59
2019-01-20T00:24:45.055Z,-3.59
2019-01-20T00:25:45.036Z,-3.57
2019-01-20T00:26:45.012Z,-3.53
2019-01-20T00:27:44.992Z,-3.60
2019-01-20T00:28:44.967Z,-3.59
2019-01-20T00:29:44.945Z,-3.56
2019-01-20T00:30:44.927Z,-3.56
2019-01-20T00:31:44.909Z,-3.57
2019-01-20T00:32:44.882Z,-3.71
2019-01-20T00:33:44.862Z,-3.60
2019-01-20T00:34:44.846Z,-3.63
2019-01-20T00:35:44.817Z,-3.66
2019-01-20T00:36:44.796Z,-3.62
2019-01-20T00:37:44.774Z,-3.67
2019-01-20T00:38:44.752Z,-3.71
2019-01-20T00:39:44.733Z,-3.75
2019-01-20T00:40:44.712Z,-3.64
2019-01-20T00:41:44.698Z,-3.71
2019-01-20T00:42:44.674Z,-3.67
2019-01-20T00:43:44.651Z,-3.62
2019-01-20T00:44:44.626Z,-3.67
2019-01-20T00:45:44.600Z,-3.78
2019-01-20T00:46:44.580Z,-3.72
2019-01-20T00:47:44.559Z,-3.79
2019-01-20T00:48:44.538Z,-3.81
2019-01-20T00:49:44.514Z,-3.82
2019-01-20T00:50:44.500Z,-3.88
2019-01-20T00:51:44.472Z,-3.88
2019-01-20T00:52:44.454Z,-3.79
2019-01-20T00:53:44.431Z,-3.79
2019-01-20T00:54:44.408Z,-3.82
2019-01-20T00:55:44.389Z,-3.76
2019-01-20T00:56:44.365Z,-3.79
2019-01-20T00:57:44.344Z,-3.69
2019-01-20T00:58:44.318Z,-3.76
2019-01-20T00:59:44.310Z,-3.75
2019-01-20T01:00:44.280Z,-3.72
2019-01-20T01:01:44.256Z,-3.86
2019-01-20T01:02:44.236Z,-3.79
2019-01-20T01:03:44.215Z,-3.90
2019-01-20T01:04:44.192Z,-3.88
2019-01-20T01:05:44.170Z,-3.96
2019-01-20T01:06:44.148Z,-3.78
2019-01-20T01:07:44.126Z,-3.82
2019-01-20T01:08:44.105Z,-3.86
2019-01-20T01:09:44.085Z,-3.90
2019-01-20T01:10:44.069Z,-3.83
2019-01-20T01:11:44.043Z,-3.88
2019-01-20T01:12:44.019Z,-3.86
2019-01-20T01:13:44.004Z,-3.86
2019-01-20T01:14:43.990Z,-3.85
2019-01-20T01:15:43.959Z,-3.93
2019-01-20T01:16:43.946Z,-3.86
2019-01-20T01:17:43.916Z,-3.85
2019-01-20T01:18:43.889Z,-3.86
2019-01-20T01:19:43.869Z,-3.85
2019-01-20T01:20:43.844Z,-3.78
2019-01-20T01:21:43.827Z,-3.81
2019-01-20T01:22:43.804Z,-3.79
2019-01-20T01:23:43.785Z,-3.78
2019-01-20T01:24:43.759Z,-3.78
2019-01-20T01:25:43.742Z,-3.72
2019-01-20T01:26:43.716Z,-3.75
2019-01-20T01:27:43.696Z,-3.72
2019-01-20T01:28:43.674Z,-3.76
2019-01-20T01:29:43.650Z,-3.79
2019-01-20T01:30:43.626Z,-3.81
2019-01-20T01:31:43.608Z,-3.81
2019-01-20T01:32:43.589Z,-3.79
2019-01-20T01:33:43.565Z,-3.86
2019-01-20T01:34:43.541Z,-3.78
2019-01-20T01:35:43.521Z,-3.79
2019-01-20T01:36:43.499Z,-3.88
2019-01-20T01:37:43.475Z,-3.85
2019-01-20T01:38:43.457Z,-3.86
2019-01-20T01:39:43.437Z,-3.85
2019-01-20T01:40:43.412Z,-3.86
2019-01-20T01:41:43.390Z,-3.90
2019-01-20T01:42:43.374Z,-3.99
2019-01-20T01:43:43.343Z,-3.91
2019-01-20T01:44:43.331Z,-3.91
2019-01-20T01:45:43.303Z,-3.90
2019-01-20T01:46:43.339Z,-3.99
2019-01-20T01:47:43.261Z,-3.96
2019-01-20T01:48:43.240Z,-4.00
2019-01-20T01:49:43.218Z,-3.93
2019-01-20T01:50:43.201Z,-3.91
2019-01-20T01:51:43.176Z,-3.93
2019-01-20T01:52:43.150Z,-3.96
2019-01-20T01:53:43.134Z,-3.93
2019-01-20T01:54:43.108Z,-4.00
2019-01-20T01:55:43.089Z,-3.94
2019-01-20T01:56:43.069Z,-3.99
2019-01-20T01:57:43.052Z,-3.91
2019-01-20T01:58:43.025Z,-3.96
2019-01-20T01:59:43.003Z,-3.90
2019-01-20T02:00:42.983Z,-3.83
2019-01-20T02:01:42.960Z,-3.91
2019-01-20T02:02:42.941Z,-3.83
2019-01-20T02:03:42.928Z,-3.90
2019-01-20T02:04:42.899Z,-3.86
2019-01-20T02:05:42.875Z,-3.78
2019-01-20T02:06:42.856Z,-3.81
2019-01-20T02:07:42.830Z,-3.83
2019-01-20T02:08:42.806Z,-3.99
2019-01-20T02:09:42.784Z,-3.93
2019-01-20T02:10:42.766Z,-3.97
2019-01-20T02:11:46.816Z,-3.93
2019-01-20T02:12:42.718Z,-3.97
2019-01-20T02:13:42.696Z,-4.07
2019-01-20T02:14:42.682Z,-4.07
2019-01-20T02:15:42.657Z,-4.12
2019-01-20T02:16:42.630Z,-4.11
2019-01-20T02:17:42.618Z,-4.10
2019-01-20T02:18:42.590Z,-4.11
2019-01-20T02:19:42.570Z,-4.07
2019-01-20T02:20:42.548Z,-4.14
2019-01-20T02:21:42.523Z,-4.11
2019-01-20T02:22:42.503Z,-4.15
2019-01-20T02:23:42.483Z,-4.15
2019-01-20T02:24:42.473Z,-4.10
2019-01-20T02:25:42.439Z,-4.06
2019-01-20T02:26:42.421Z,-4.15
2019-01-20T02:27:42.393Z,-4.15
2019-01-20T02:28:42.374Z,-4.14
2019-01-20T02:29:42.352Z,-4.07
2019-01-20T02:30:42.327Z,-4.17
2019-01-20T02:31:42.312Z,-4.20
2019-01-20T02:32:42.283Z,-4.18
2019-01-20T02:33:42.268Z,-4.18
2019-01-20T02:34:42.242Z,-4.11
2019-01-20T02:35:42.224Z,-4.14
2019-01-20T02:36:42.199Z,-4.17
2019-01-20T02:37:42.177Z,-4.24
2019-01-20T02:38:42.155Z,-4.25
2019-01-20T02:39:42.139Z,-4.30
2019-01-20T02:40:42.114Z,-4.33
2019-01-20T02:41:42.086Z,-4.22
2019-01-20T02:42:42.069Z,-4.36
2019-01-20T02:43:42.049Z,-4.35
2019-01-20T02:44:42.024Z,-4.46
2019-01-20T02:45:42.002Z,-4.32
2019-01-20T02:46:41.984Z,-4.38
2019-01-20T02:47:41.963Z,-4.39
2019-01-20T02:48:41.938Z,-4.38
2019-01-20T02:49:41.916Z,-4.43
2019-01-20T02:50:41.892Z,-4.42
2019-01-20T02:51:41.874Z,-4.51
2019-01-20T02:52:41.853Z,-4.39
2019-01-20T02:53:41.829Z,-4.42
2019-01-20T02:54:41.804Z,-4.47
2019-01-20T02:55:41.789Z,-4.39
2019-01-20T02:56:41.762Z,-4.40
2019-01-20T02:57:41.739Z,-4.38
2019-01-20T02:58:41.726Z,-4.33
2019-01-20T02:59:41.703Z,-4.24
2019-01-20T03:00:41.677Z,-4.32
2019-01-20T03:01:41.651Z,-4.17
2019-01-20T03:02:41.634Z,-4.12
2019-01-20T03:03:41.604Z,-4.22
2019-01-20T03:04:41.587Z,-4.21
2019-01-20T03:05:41.568Z,-4.18
2019-01-20T03:06:41.546Z,-4.15
2019-01-20T03:07:41.524Z,-4.25
2019-01-20T03:08:41.499Z,-4.30
2019-01-20T03:09:41.482Z,-4.28
2019-01-20T03:10:41.458Z,-4.43
2019-01-20T03:11:41.438Z,-4.32
2019-01-20T03:12:41.428Z,-4.32
2019-01-20T03:13:41.391Z,-4.28
2019-01-20T03:14:41.367Z,-4.28
2019-01-20T03:15:41.349Z,-4.36
2019-01-20T03:16:41.322Z,-4.43
2019-01-20T03:17:41.313Z,-4.29
2019-01-20T03:18:41.282Z,-4.36
2019-01-20T03:19:41.262Z,-4.38
2019-01-20T03:20:41.236Z,-4.38
2019-01-20T03:21:41.221Z,-4.43
2019-01-20T03:22:41.204Z,-4.43
2019-01-20T03:23:41.184Z,-4.49
2019-01-20T03:24:41.155Z,-4.54
2019-01-20T03:25:41.130Z,-4.51
2019-01-20T03:26:41.106Z,-4.54
2019-01-20T03:27:41.087Z,-4.39
2019-01-20T03:28:41.064Z,-4.38
2019-01-20T03:29:41.048Z,-4.36
2019-01-20T03:30:41.020Z,-4.36
2019-01-20T03:31:41.002Z,-4.38
2019-01-20T03:32:40.982Z,-4.36
2019-01-20T03:33:40.954Z,-4.28
2019-01-20T03:34:40.932Z,-4.28
2019-01-20T03:35:40.909Z,-4.28
2019-01-20T03:36:40.890Z,-4.33
2019-01-20T03:37:40.870Z,-4.29
2019-01-20T03:38:40.847Z,-4.18
2019-01-20T03:39:40.822Z,-4.21
2019-01-20T03:40:40.804Z,-4.20
2019-01-20T03:41:40.777Z,-4.15
2019-01-20T03:42:40.755Z,-4.18
2019-01-20T03:43:40.736Z,-4.12
2019-01-20T03:44:40.710Z,-4.14
2019-01-20T03:45:40.689Z,-4.24
2019-01-20T03:46:40.677Z,-4.14
2019-01-20T03:47:40.649Z,-4.18
2019-01-20T03:48:40.623Z,-4.11
2019-01-20T03:49:40.607Z,-4.17
2019-01-20T03:50:40.582Z,-4.15
2019-01-20T03:51:40.563Z,-4.14
2019-01-20T03:52:40.545Z,-4.20
2019-01-20T03:53:40.560Z,-4.18
2019-01-20T03:54:40.497Z,-4.29
2019-01-20T03:55:40.474Z,-4.36
2019-01-20T03:56:40.453Z,-4.30
2019-01-20T03:57:40.429Z,-4.18
2019-01-20T03:58:40.411Z,-4.25
2019-01-20T03:59:40.382Z,-4.30
2019-01-20T04:00:40.369Z,-4.24
2019-01-20T04:01:40.343Z,-4.24
2019-01-20T04:02:40.321Z,-4.25
2019-01-20T04:03:40.297Z,-4.35
2019-01-20T04:04:40.274Z,-4.39
2019-01-20T04:05:40.248Z,-4.42
2019-01-20T04:06:40.229Z,-4.40
2019-01-20T04:07:40.209Z,-4.49
2019-01-20T04:08:40.195Z,-4.51
2019-01-20T04:09:40.165Z,-4.56
2019-01-20T04:10:40.144Z,-4.51
2019-01-20T04:11:40.120Z,-4.63
2019-01-20T04:12:40.105Z,-4.57
2019-01-20T04:13:40.075Z,-4.53
2019-01-20T04:14:40.055Z,-4.61
2019-01-20T04:15:40.036Z,-4.60
2019-01-20T04:16:40.008Z,-4.56
2019-01-20T04:17:39.992Z,-4.47
2019-01-20T04:18:39.970Z,-4.54
2019-01-20T04:19:39.939Z,-4.47
2019-01-20T04:20:39.920Z,-4.50
2019-01-20T04:21:39.904Z,-4.47
2019-01-20T04:22:39.879Z,-4.53
2019-01-20T04:23:39.856Z,-4.50
2019-01-20T04:24:39.836Z,-4.49
2019-01-20T04:25:39.828Z,-4.49
2019-01-20T04:26:39.788Z,-4.58
2019-01-20T04:27:39.768Z,-4.61
2019-01-20T04:28:39.750Z,-4.65
2019-01-20T04:29:39.723Z,-4.58
2019-01-20T04:30:39.705Z,-4.67
2019-01-20T04:31:39.678Z,-4.58
2019-01-20T04:32:39.657Z,-4.53
2019-01-20T04:33:39.636Z,-4.49
2019-01-20T04:34:39.609Z,-4.56
2019-01-20T04:35:39.595Z,-4.54
2019-01-20T04:36:39.570Z,-4.49
2019-01-20T04:37:39.599Z,-4.56
2019-01-20T04:38:39.528Z,-4.56
2019-01-20T04:39:39.502Z,-4.56
2019-01-20T04:40:39.479Z,-4.60
2019-01-20T04:41:39.459Z,-4.57
2019-01-20T04:42:39.440Z,-4.49
2019-01-20T04:43:39.414Z,-4.56
2019-01-20T04:44:39.398Z,-4.50
2019-01-20T04:45:39.373Z,-4.53
2019-01-20T04:46:39.344Z,-4.53
2019-01-20T04:47:39.331Z,-4.56
2019-01-20T04:48:39.306Z,-4.54
2019-01-20T04:49:39.284Z,-4.43
2019-01-20T04:50:39.282Z,-4.50
2019-01-20T04:51:39.243Z,-4.49
2019-01-20T04:52:39.217Z,-4.50
2019-01-20T04:53:39.196Z,-4.51
2019-01-20T04:54:39.261Z,-4.49
2019-01-20T04:55:39.154Z,-4.47
2019-01-20T04:56:39.131Z,-4.43
2019-01-20T04:57:39.105Z,-4.49
2019-01-20T04:58:39.086Z,-4.57
2019-01-20T04:59:39.069Z,-4.60
2019-01-20T05:00:39.038Z,-4.63
2019-01-20T05:01:39.022Z,-4.57
2019-01-20T05:02:38.999Z,-4.57
2019-01-20T05:03:38.975Z,-4.65
2019-01-20T05:04:38.955Z,-4.67
2019-01-20T05:05:38.935Z,-4.71
2019-01-20T05:06:38.907Z,-4.68
2019-01-20T05:07:38.890Z,-4.71
2019-01-20T05:08:38.863Z,-4.68
2019-01-20T05:09:38.841Z,-4.78
2019-01-20T05:10:38.823Z,-4.72
2019-01-20T05:11:38.803Z,-4.71
2019-01-20T05:12:38.778Z,-4.78
2019-01-20T05:13:38.758Z,-4.71
2019-01-20T05:14:38.731Z,-4.78
2019-01-20T05:15:38.713Z,-4.77
2019-01-20T05:16:38.687Z,-4.81
2019-01-20T05:17:38.668Z,-4.72
2019-01-20T05:18:38.648Z,-4.77
2019-01-20T05:19:38.622Z,-4.71
2019-01-20T05:20:38.600Z,-4.77
2019-01-20T05:21:38.576Z,-4.92
2019-01-20T05:22:38.560Z,-4.85
2019-01-20T05:23:38.534Z,-4.81
2019-01-20T05:24:38.513Z,-4.86
2019-01-20T05:25:38.485Z,-4.92
2019-01-20T05:26:38.470Z,-4.78
2019-01-20T05:27:38.457Z,-4.93
2019-01-20T05:28:38.427Z,-4.87
2019-01-20T05:29:38.402Z,-4.92
2019-01-20T05:30:38.383Z,-4.89
2019-01-20T05:31:38.361Z,-4.99
2019-01-20T05:32:38.331Z,-4.90
2019-01-20T05:33:38.324Z,-4.92
2019-01-20T05:34:38.296Z,-5.03
2019-01-20T05:35:38.328Z,-5.04
2019-01-20T05:36:38.245Z,-4.97
2019-01-20T05:37:38.228Z,-4.92
2019-01-20T05:38:38.204Z,-5.03
2019-01-20T05:39:38.183Z,-5.13
2019-01-20T05:40:38.154Z,-4.97
2019-01-20T05:41:38.146Z,-4.99
2019-01-20T05:42:45.615Z,-4.97
2019-01-20T05:43:38.092Z,-4.96
2019-01-20T05:44:38.070Z,-5.04
2019-01-20T05:45:38.048Z,-5.08
2019-01-20T05:46:38.028Z,-4.95
2019-01-20T05:47:38.007Z,-5.08
2019-01-20T05:48:37.985Z,-5.11
2019-01-20T05:49:37.960Z,-5.03
2019-01-20T05:50:37.937Z,-5.10
2019-01-20T05:51:37.919Z,-5.07
2019-01-20T05:52:37.897Z,-5.14
2019-01-20T05:53:37.871Z,-5.23
2019-01-20T05:54:37.856Z,-5.10
2019-01-20T05:55:37.829Z,-5.11
2019-01-20T05:56:37.802Z,-5.17
2019-01-20T05:57:37.790Z,-5.14
2019-01-20T05:58:37.764Z,-4.97
2019-01-20T05:59:37.738Z,-5.11
2019-01-20T06:00:37.716Z,-5.10
2019-01-20T06:01:37.694Z,-5.03
2019-01-20T06:02:37.671Z,-5.10
2019-01-20T06:03:37.645Z,-5.06
2019-01-20T06:04:37.628Z,-5.10
2019-01-20T06:05:37.603Z,-5.10
2019-01-20T06:06:37.586Z,-5.04
2019-01-20T06:07:37.562Z,-5.10
2019-01-20T06:08:37.540Z,-5.04
2019-01-20T06:09:37.524Z,-5.10
2019-01-20T06:10:37.495Z,-4.93
2019-01-20T06:11:37.469Z,-4.99
2019-01-20T06:12:37.445Z,-5.03
2019-01-20T06:13:37.427Z,-4.97
2019-01-20T06:14:37.406Z,-4.99
2019-01-20T06:15:37.386Z,-4.99
2019-01-20T06:16:37.368Z,-5.04
2019-01-20T06:17:37.332Z,-5.03
2019-01-20T06:18:37.316Z,-5.03
2019-01-20T06:19:37.296Z,-5.03
2019-01-20T06:20:37.270Z,-5.11
2019-01-20T06:21:37.250Z,-5.06
2019-01-20T06:22:37.227Z,-5.08
2019-01-20T06:23:37.204Z,-5.10
2019-01-20T06:24:37.178Z,-5.11
2019-01-20T06:25:37.157Z,-5.08
2019-01-20T06:26:37.134Z,-5.23
2019-01-20T06:27:37.114Z,-5.11
2019-01-20T06:28:37.091Z,-5.14
2019-01-20T06:29:37.076Z,-5.11
2019-01-20T06:30:37.047Z,-5.10
2019-01-20T06:31:37.027Z,-5.11
2019-01-20T06:32:37.002Z,-5.07
2019-01-20T06:33:36.980Z,-5.18
2019-01-20T06:34:36.963Z,-5.22
2019-01-20T06:35:36.935Z,-5.07
2019-01-20T06:36:36.916Z,-5.17
2019-01-20T06:37:36.894Z,-5.11
2019-01-20T06:38:36.869Z,-5.17
2019-01-20T06:39:36.842Z,-5.18
2019-01-20T06:40:36.833Z,-5.33
2019-01-20T06:41:36.803Z,-5.30
2019-01-20T06:42:36.776Z,-5.36
2019-01-20T06:43:36.758Z,-5.32
2019-01-20T06:44:36.736Z,-5.32
2019-01-20T06:45:36.713Z,-5.26
2019-01-20T06:46:36.694Z,-5.32
2019-01-20T06:47:36.670Z,-5.27
2019-01-20T06:48:36.640Z,-5.36
2019-01-20T06:49:36.624Z,-5.41
2019-01-20T06:50:36.600Z,-5.47
2019-01-20T06:51:36.596Z,-5.41
2019-01-20T06:52:36.558Z,-5.47
2019-01-20T06:53:36.536Z,-5.43
2019-01-20T06:54:36.514Z,-5.47
2019-01-20T06:55:36.491Z,-5.37
2019-01-20T06:56:36.479Z,-5.39
2019-01-20T06:57:36.443Z,-5.27
2019-01-20T06:58:36.421Z,-5.36
2019-01-20T06:59:36.404Z,-5.35
2019-01-20T07:00:36.593Z,-5.32
2019-01-20T07:01:36.355Z,-5.27
2019-01-20T07:02:36.337Z,-5.32
2019-01-20T07:03:36.310Z,-5.25
2019-01-20T07:04:36.287Z,-5.26
2019-01-20T07:05:36.257Z,-5.23
2019-01-20T07:06:36.243Z,-5.17
2019-01-20T07:07:36.222Z,-5.07
2019-01-20T07:08:36.196Z,-5.10
2019-01-20T07:09:36.175Z,-5.03
2019-01-20T07:10:36.152Z,-5.00
2019-01-20T07:11:36.128Z,-5.08
2019-01-20T07:12:36.106Z,-4.95
2019-01-20T07:13:36.089Z,-4.97
2019-01-20T07:14:36.060Z,-5.03
2019-01-20T07:15:36.045Z,-4.95
2019-01-20T07:16:36.019Z,-4.90
2019-01-20T07:17:35.999Z,-4.93
2019-01-20T07:18:35.972Z,-4.92
2019-01-20T07:19:35.947Z,-4.95
2019-01-20T07:20:35.925Z,-4.79
2019-01-20T07:21:35.922Z,-4.81
2019-01-20T07:22:35.884Z,-4.72
2019-01-20T07:23:35.863Z,-4.79
2019-01-20T07:24:35.843Z,-4.81
2019-01-20T07:25:35.818Z,-4.83
2019-01-20T07:26:35.794Z,-4.85
2019-01-20T07:27:35.773Z,-4.92
2019-01-20T07:28:35.746Z,-4.96
2019-01-20T07:29:35.725Z,-4.95
2019-01-20T07:30:35.794Z,-4.93
2019-01-20T07:31:35.684Z,-4.90
2019-01-20T07:32:35.653Z,-4.96
2019-01-20T07:33:35.633Z,-4.97
2019-01-20T07:34:35.614Z,-5.03
2019-01-20T07:35:35.589Z,-5.04
2019-01-20T07:36:35.579Z,-4.96
2019-01-20T07:37:35.549Z,-4.96
2019-01-20T07:38:35.532Z,-4.96
2019-01-20T07:39:37.155Z,-4.93
2019-01-20T07:40:35.480Z,-5.00
2019-01-20T07:41:35.459Z,-4.89
2019-01-20T07:42:35.433Z,-4.92
2019-01-20T07:43:35.417Z,-4.93
2019-01-20T07:44:35.389Z,-4.78
2019-01-20T07:45:35.367Z,-4.85
2019-01-20T07:46:35.351Z,-4.81
2019-01-20T07:47:35.325Z,-4.83
2019-01-20T07:48:35.302Z,-4.71
2019-01-20T07:49:35.276Z,-4.75
2019-01-20T07:50:35.265Z,-4.72
2019-01-20T07:51:35.268Z,-4.68
2019-01-20T07:52:35.208Z,-4.54
2019-01-20T07:53:35.190Z,-4.50
2019-01-20T07:54:35.172Z,-4.50
2019-01-20T07:55:35.140Z,-4.40
2019-01-20T07:56:35.123Z,-4.46
2019-01-20T07:57:35.097Z,-4.32
2019-01-20T07:58:35.079Z,-4.30
2019-01-20T07:59:35.060Z,-4.29
2019-01-20T08:00:35.029Z,-4.12
2019-01-20T08:01:35.005Z,-4.12
2019-01-20T08:02:34.988Z,-4.11
2019-01-20T08:03:34.969Z,-4.06
2019-01-20T08:04:34.945Z,-4.00
2019-01-20T08:05:34.920Z,-3.99
2019-01-20T08:06:34.902Z,-3.97
2019-01-20T08:07:34.879Z,-3.90
2019-01-20T08:08:34.859Z,-3.79
2019-01-20T08:09:34.825Z,-3.76
2019-01-20T08:10:34.870Z,-3.83
2019-01-20T08:11:34.789Z,-3.72
2019-01-20T08:12:34.766Z,-3.66
2019-01-20T08:13:34.749Z,-3.76
2019-01-20T08:14:34.723Z,-3.71
2019-01-20T08:15:34.702Z,-3.76
2019-01-20T08:16:34.679Z,-3.67
2019-01-20T08:17:34.658Z,-3.69
2019-01-20T08:18:34.642Z,-3.57
2019-01-20T08:19:34.614Z,-3.60
2019-01-20T08:20:34.592Z,-3.53
2019-01-20T08:21:34.569Z,-3.53
2019-01-20T08:22:34.545Z,-3.54
2019-01-20T08:23:34.529Z,-3.53
2019-01-20T08:24:34.505Z,-3.53
2019-01-20T08:25:34.481Z,-3.54
2019-01-20T08:26:34.458Z,-3.46
2019-01-20T08:27:34.434Z,-3.41
2019-01-20T08:28:34.414Z,-3.36
2019-01-20T08:29:34.400Z,-3.31
2019-01-20T08:30:34.376Z,-3.33
2019-01-20T08:31:34.354Z,-3.18
2019-01-20T08:32:34.330Z,-3.17
2019-01-20T08:33:34.308Z,-3.14
2019-01-20T08:34:34.288Z,-3.21
2019-01-20T08:35:34.264Z,-2.99
2019-01-20T08:36:34.255Z,-3.00
2019-01-20T08:37:34.443Z,-2.89
2019-01-20T08:38:34.204Z,-2.79
2019-01-20T08:39:34.179Z,-2.79
2019-01-20T08:40:34.154Z,-2.70
2019-01-20T08:41:34.139Z,-2.53
2019-01-20T08:42:34.116Z,-2.50
2019-01-20T08:43:34.092Z,-2.53
2019-01-20T08:44:34.085Z,-2.42
2019-01-20T08:45:34.052Z,-2.30
2019-01-20T08:46:34.031Z,-2.20
2019-01-20T08:47:34.011Z,-2.21
2019-01-20T08:48:33.986Z,-2.13
2019-01-20T08:49:33.979Z,-2.00
2019-01-20T08:50:33.945Z,-2.00
2019-01-20T08:51:33.925Z,-1.80
2019-01-20T08:52:33.906Z,-1.72
2019-01-20T08:53:33.880Z,-1.66
2019-01-20T08:54:33.860Z,-1.59
2019-01-20T08:55:33.844Z,-1.54
2019-01-20T08:56:33.824Z,-1.52
2019-01-20T08:57:33.806Z,-1.34
2019-01-20T08:58:33.789Z,-1.31
2019-01-20T08:59:33.760Z,-1.23
2019-01-20T09:00:33.737Z,-1.12
2019-01-20T09:01:33.717Z,-1.13
2019-01-20T09:02:33.697Z,-0.98
2019-01-20T09:03:33.674Z,-0.97
2019-01-20T09:04:33.658Z,-0.78
2019-01-20T09:05:33.631Z,-0.73
2019-01-20T09:06:33.613Z,-0.75
2019-01-20T09:07:33.597Z,-0.64
2019-01-20T09:08:33.576Z,-0.55
2019-01-20T09:09:33.554Z,-0.44
2019-01-20T09:10:33.536Z,-0.43
2019-01-20T09:11:33.516Z,-0.44
2019-01-20T09:12:33.495Z,-0.49
2019-01-20T09:13:39.661Z,-0.40
2019-01-20T09:14:33.455Z,-0.36
2019-01-20T09:15:33.436Z,-0.28
2019-01-20T09:16:33.413Z,-0.26
2019-01-20T09:17:33.396Z,-0.44
2019-01-20T09:18:33.372Z,-0.62
2019-01-20T09:19:33.353Z,-0.61
2019-01-20T09:20:33.334Z,-0.58
2019-01-20T09:21:33.314Z,-0.61
2019-01-20T09:22:33.288Z,-0.69
2019-01-20T09:23:33.283Z,-0.57
2019-01-20T09:24:33.253Z,-0.57
2019-01-20T09:25:33.237Z,-0.58
2019-01-20T09:26:33.207Z,-0.61
2019-01-20T09:27:33.195Z,-0.57
2019-01-20T09:28:33.173Z,-0.49
2019-01-20T09:29:33.157Z,-0.58
2019-01-20T09:30:33.135Z,-0.60
2019-01-20T09:31:33.122Z,-0.73
2019-01-20T09:32:33.094Z,-0.65
2019-01-20T09:33:33.082Z,-0.72
2019-01-20T09:34:33.058Z,-0.67
2019-01-20T09:35:33.042Z,-0.64
2019-01-20T09:36:33.022Z,-0.64
2019-01-20T09:37:32.998Z,-0.52
2019-01-20T09:38:32.990Z,-0.58
2019-01-20T09:39:32.960Z,-0.40
2019-01-20T09:40:32.941Z,-0.34
2019-01-20T09:41:32.921Z,-0.26
2019-01-20T09:42:32.902Z,-0.04
2019-01-20T09:43:32.882Z,0.11
2019-01-20T09:44:32.864Z,0.31
2019-01-20T09:45:32.846Z,0.60
2019-01-20T09:46:32.824Z,0.84
2019-01-20T09:47:32.804Z,0.88
2019-01-20T09:48:32.793Z,1.05
2019-01-20T09:49:32.771Z,1.20
2019-01-20T09:50:32.747Z,1.26
2019-01-20T09:51:32.737Z,1.51
2019-01-20T09:52:32.707Z,1.55
2019-01-20T09:53:32.693Z,1.55
2019-01-20T09:54:32.673Z,1.59
2019-01-20T09:55:32.657Z,1.54
2019-01-20T09:56:32.690Z,1.51
2019-01-20T09:57:32.618Z,1.52
2019-01-20T09:58:32.600Z,1.54
2019-01-20T09:59:32.580Z,1.52
2019-01-20T10:00:32.560Z,1.60
2019-01-20T10:01:32.540Z,1.80
2019-01-20T10:02:32.528Z,1.90
2019-01-20T10:03:32.507Z,2.14
2019-01-20T10:04:32.485Z,2.41
2019-01-20T10:05:32.470Z,2.72
2019-01-20T10:06:32.451Z,2.77
2019-01-20T10:07:32.429Z,2.82
2019-01-20T10:08:32.411Z,2.79
2019-01-20T10:09:32.397Z,2.77
2019-01-20T10:10:32.376Z,2.77
2019-01-20T10:11:32.359Z,2.90
2019-01-20T10:12:32.348Z,2.97
2019-01-20T10:13:32.322Z,2.97
2019-01-20T10:14:32.306Z,3.15
2019-01-20T10:15:32.290Z,3.14
2019-01-20T10:16:32.269Z,3.18
2019-01-20T10:17:32.261Z,3.20
2019-01-20T10:18:32.236Z,3.23
2019-01-20T10:19:32.221Z,3.21
2019-01-20T10:20:32.202Z,3.29
2019-01-20T10:21:32.182Z,3.51
2019-01-20T10:22:32.166Z,3.79
2019-01-20T10:23:32.153Z,3.79
2019-01-20T10:24:32.134Z,3.84
2019-01-20T10:25:32.116Z,3.79
2019-01-20T10:26:32.129Z,3.69
2019-01-20T10:27:32.082Z,3.47
2019-01-20T10:28:32.066Z,3.48
2019-01-20T10:29:32.047Z,3.60
2019-01-20T10:30:32.034Z,3.78
2019-01-20T10:31:32.020Z,3.78
2019-01-20T10:32:32.000Z,3.96
2019-01-20T10:33:31.985Z,3.93
2019-01-20T10:34:31.961Z,4.00
2019-01-20T10:35:31.945Z,3.98
2019-01-20T10:36:33.183Z,4.05
2019-01-20T10:37:31.916Z,4.00
2019-01-20T10:38:31.899Z,4.09
2019-01-20T10:39:31.886Z,4.09
2019-01-20T10:40:32.352Z,4.06
2019-01-20T10:41:31.853Z,4.18
2019-01-20T10:42:31.831Z,4.09
2019-01-20T10:43:31.818Z,4.22
2019-01-20T10:44:31.795Z,4.02
2019-01-20T10:45:31.783Z,4.06
2019-01-20T10:46:31.765Z,4.12
2019-01-20T10:47:31.755Z,4.04
2019-01-20T10:48:31.736Z,4.08
2019-01-20T10:49:31.716Z,4.27
2019-01-20T10:50:31.704Z,4.54
2019-01-20T10:51:31.690Z,4.91
2019-01-20T10:52:31.673Z,5.18
2019-01-20T10:53:31.653Z,5.38
2019-01-20T10:54:31.641Z,5.63
2019-01-20T10:55:31.633Z,5.94
2019-01-20T10:56:31.605Z,6.21
2019-01-20T10:57:31.597Z,6.33
2019-01-20T10:58:31.591Z,6.09
2019-01-20T10:59:31.569Z,6.11
2019-01-20T11:00:31.554Z,5.65
2019-01-20T11:01:31.522Z,5.30
2019-01-20T11:02:31.519Z,4.78
2019-01-20T11:03:31.496Z,4.70
2019-01-20T11:04:31.482Z,5.02
2019-01-20T11:05:32.773Z,5.39
2019-01-20T11:06:31.462Z,5.58
2019-01-20T11:07:31.436Z,5.45
2019-01-20T11:08:31.415Z,5.45
2019-01-20T11:09:31.407Z,5.40
2019-01-20T11:10:31.391Z,5.63
2019-01-20T11:11:31.376Z,5.90
2019-01-20T11:12:31.360Z,5.99
2019-01-20T11:13:31.343Z,6.18
2019-01-20T11:14:31.330Z,6.14
2019-01-20T11:15:31.309Z,6.25
2019-01-20T11:16:31.298Z,6.46
2019-01-20T11:17:31.278Z,5.91
2019-01-20T11:18:31.267Z,5.72
2019-01-20T11:19:31.252Z,5.54
2019-01-20T11:20:31.233Z,5.02
2019-01-20T11:21:31.223Z,4.86
2019-01-20T11:22:31.205Z,4.69
2019-01-20T11:23:31.200Z,4.69
2019-01-20T11:24:31.170Z,4.34
2019-01-20T11:25:31.158Z,4.40
2019-01-20T11:26:31.148Z,4.41
2019-01-20T11:27:31.132Z,4.24
2019-01-20T11:28:31.112Z,4.30
2019-01-20T11:29:31.104Z,4.36
2019-01-20T11:30:31.089Z,4.48
2019-01-20T11:31:31.066Z,4.60
2019-01-20T11:32:31.045Z,4.77
2019-01-20T11:33:31.038Z,4.84
2019-01-20T11:34:31.030Z,5.04
2019-01-20T11:35:31.007Z,5.25
2019-01-20T11:36:30.988Z,5.65
2019-01-20T11:37:30.978Z,5.78
2019-01-20T11:38:30.974Z,5.72
2019-01-20T11:39:30.947Z,5.49
2019-01-20T11:40:30.933Z,5.21
2019-01-20T11:41:30.917Z,5.18
2019-01-20T11:42:30.901Z,5.39
2019-01-20T11:43:30.893Z,5.60
2019-01-20T11:44:30.868Z,5.99
2019-01-20T11:45:30.854Z,6.09
2019-01-20T11:46:30.842Z,6.19
2019-01-20T11:47:30.826Z,6.12
2019-01-20T11:48:30.809Z,6.03
2019-01-20T11:49:30.797Z,6.27
2019-01-20T11:50:30.775Z,6.25
2019-01-20T11:51:30.772Z,6.37
2019-01-20T11:52:30.748Z,6.49
2019-01-20T11:53:30.737Z,6.69
2019-01-20T11:54:30.719Z,6.79
2019-01-20T11:55:30.705Z,6.94
2019-01-20T11:56:30.691Z,6.77
2019-01-20T11:57:30.684Z,6.62
2019-01-20T11:58:30.664Z,6.70
2019-01-20T11:59:30.646Z,6.84
2019-01-20T12:00:30.634Z,6.70
2019-01-20T12:01:30.613Z,6.54
2019-01-20T12:02:30.606Z,6.44
2019-01-20T12:03:30.587Z,6.22
2019-01-20T12:04:30.569Z,6.18
2019-01-20T12:05:30.555Z,6.12
2019-01-20T12:06:30.543Z,6.08
2019-01-20T12:07:30.531Z,5.99
2019-01-20T12:08:30.931Z,5.93
2019-01-20T12:09:30.499Z,5.99
2019-01-20T12:10:30.486Z,6.21
2019-01-20T12:11:30.468Z,6.69
2019-01-20T12:12:30.460Z,7.05
2019-01-20T12:13:30.442Z,7.25
2019-01-20T12:14:30.426Z,7.67
2019-01-20T12:15:30.414Z,8.11
2019-01-20T12:16:30.402Z,8.37
2019-01-20T12:17:30.384Z,8.53
2019-01-20T12:18:30.366Z,8.76
2019-01-20T12:19:30.360Z,8.53
2019-01-20T12:20:30.341Z,8.11
2019-01-20T12:21:30.343Z,7.63
2019-01-20T12:22:30.311Z,7.46
2019-01-20T12:23:30.299Z,7.23
2019-01-20T12:24:30.285Z,7.28
2019-01-20T12:25:30.268Z,6.97
2019-01-20T12:26:30.255Z,6.88
2019-01-20T12:27:30.247Z,6.95
2019-01-20T12:28:30.231Z,6.73
2019-01-20T12:29:30.213Z,6.85
2019-01-20T12:30:30.206Z,7.20
2019-01-20T12:31:30.196Z,7.48
2019-01-20T12:32:30.179Z,7.71
2019-01-20T12:33:30.162Z,7.50
2019-01-20T12:34:30.150Z,7.17
2019-01-20T12:35:30.135Z,6.64
2019-01-20T12:36:30.117Z,6.46
2019-01-20T12:37:30.105Z,6.41
2019-01-20T12:38:30.093Z,6.11
2019-01-20T12:39:30.085Z,5.91
2019-01-20T12:40:30.066Z,5.91
2019-01-20T12:41:30.046Z,6.19
2019-01-20T12:42:30.033Z,6.31
2019-01-20T12:43:30.022Z,6.40
2019-01-20T12:44:31.461Z,6.66
2019-01-20T12:45:29.992Z,6.70
2019-01-20T12:46:29.980Z,6.94
2019-01-20T12:47:29.970Z,6.95
2019-01-20T12:48:29.955Z,6.81
2019-01-20T12:49:29.938Z,7.13
2019-01-20T12:50:29.924Z,7.34
2019-01-20T12:51:29.913Z,7.25
2019-01-20T12:52:29.893Z,7.28
2019-01-20T12:53:29.881Z,7.23
2019-01-20T12:54:29.871Z,7.16
2019-01-20T12:55:29.857Z,7.09
2019-01-20T12:56:29.837Z,6.81
2019-01-20T12:57:29.825Z,6.64
2019-01-20T12:58:29.809Z,6.76
2019-01-20T12:59:29.805Z,6.87